Time;durP1;ratioP1;P1;durP2;ratioP2;P2;SDS_P1;SDS_P2;PMS_P1;PMS_P2;Temp;Humidity;BMP_temperature;BMP_pressure;BME280_temperature;BME280_humidity;BME280_pressure;Samples;Min_cycle;Max_cycle;Signal;HPM_P1;HPM_P2
2024/02/09 00:42:43;;;;;;;1.70;1.00;;;;;;;12.33;54.60;92960.28;6148418;23;20033;-86
2024/02/09 03:06:26;;;;;;;3.40;1.17;;;;;;;12.45;55.71;92945.31;6231170;22;20117;-86
2024/02/09 03:08:55;;;;;;;2.78;1.20;;;;;;;12.56;55.31;92951.41;6199723;22;20015;-86
2024/02/09 03:11:21;;;;;;;2.80;1.23;;;;;;;12.57;55.32;92947.78;6248581;22;20085;-87
2024/02/09 03:13:49;;;;;;;2.30;1.30;;;;;;;12.49;55.37;92943.00;6248638;22;20012;-86
2024/02/09 03:46:16;;;;;;;1.63;1.20;;;;;;;12.48;55.61;92981.31;6244751;22;20020;-87
2024/02/09 03:48:45;;;;;;;3.45;1.10;;;;;;;12.38;55.78;92980.44;6244113;23;20020;-87
2024/02/09 03:51:10;;;;;;;2.53;1.27;;;;;;;12.33;55.77;92989.75;6243757;23;20000;-87
2024/02/09 03:53:36;;;;;;;2.80;1.20;;;;;;;12.31;55.82;92981.38;6243298;23;20074;-87
2024/02/09 03:56:02;;;;;;;2.90;1.27;;;;;;;12.30;55.59;92982.44;6243750;23;20019;-87
2024/02/09 04:23:02;;;;;;;2.75;1.20;;;;;;;12.37;55.54;92974.41;6217267;22;20028;-87
2024/02/09 04:25:28;;;;;;;3.35;1.25;;;;;;;12.30;55.94;92968.63;6192369;23;20051;-87
2024/02/09 04:27:55;;;;;;;2.90;1.42;;;;;;;12.21;56.08;92962.25;6221034;22;20015;-87
2024/02/09 04:30:21;;;;;;;4.32;1.27;;;;;;;12.37;55.90;92960.59;6199027;22;20073;-86
2024/02/09 04:32:47;;;;;;;2.17;1.10;;;;;;;12.41;55.57;92948.66;6223306;22;20082;-87
2024/02/09 04:35:16;;;;;;;2.65;1.20;;;;;;;12.47;55.35;92940.66;6248348;22;20032;-87
2024/02/09 04:42:56;;;;;;;3.15;1.40;;;;;;;12.49;55.58;92940.41;6262957;22;20016;-87
2024/02/09 04:45:22;;;;;;;2.60;1.30;;;;;;;12.60;55.19;92942.06;6222637;22;20012;-87
2024/02/09 04:47:48;;;;;;;3.97;1.33;;;;;;;12.63;54.82;92946.78;6221687;22;20015;-86
2024/02/09 04:55:15;;;;;;;2.22;1.48;;;;;;;12.52;55.28;92939.91;6243707;22;20027;-86
2024/02/09 04:57:42;;;;;;;2.65;1.50;;;;;;;12.63;55.66;92946.00;6192976;23;20015;-86
2024/02/09 05:00:09;;;;;;;3.38;1.60;;;;;;;12.59;55.20;92922.25;6192569;23;20035;-86
2024/02/09 05:02:36;;;;;;;3.38;1.70;;;;;;;12.56;55.53;92929.78;6217927;23;20004;-86
2024/02/09 05:05:02;;;;;;;3.55;2.17;;;;;;;12.80;55.07;92930.28;6217831;23;20011;-86
2024/02/09 05:26:02;;;;;;;3.33;2.20;;;;;;;12.55;56.27;92896.91;6261107;22;20023;-88
2024/02/09 05:46:25;;;;;;;4.97;2.95;;;;;;;12.35;58.39;92861.78;6270635;22;20024;-87
2024/02/09 05:48:52;;;;;;;5.00;2.88;;;;;;;12.51;57.62;92870.56;6247348;22;20012;-87
2024/02/09 06:27:15;;;;;;;10.43;3.70;;;;;;;12.65;57.61;92860.50;6216690;22;20024;-86
2024/02/09 06:29:47;;;;;;;6.50;3.75;;;;;;;12.62;57.77;92866.19;6189346;23;20020;-87
2024/02/09 06:32:13;;;;;;;5.93;3.53;;;;;;;12.62;57.49;92859.19;6192050;23;20020;-86
2024/02/09 06:34:38;;;;;;;4.85;3.30;;;;;;;12.43;58.33;92861.34;6241831;23;20073;-86
2024/02/09 07:32:18;;;;;;;5.13;2.78;;;;;;;12.64;57.70;92866.72;6217577;23;20028;-87
2024/02/09 07:34:44;;;;;;;5.15;2.90;;;;;;;12.72;57.51;92879.34;6186248;23;20020;-86
2024/02/09 07:37:13;;;;;;;4.88;2.50;;;;;;;12.72;57.48;92868.91;6213345;23;20005;-87
2024/02/09 07:39:39;;;;;;;5.85;2.92;;;;;;;12.87;57.06;92874.25;6213235;23;20008;-87
2024/02/09 07:42:04;;;;;;;6.00;2.80;;;;;;;12.86;56.74;92866.66;6188818;23;20060;-87
2024/02/09 07:44:30;;;;;;;5.63;2.42;;;;;;;12.83;57.31;92852.31;6188663;23;20017;-86
2024/02/09 07:46:56;;;;;;;3.08;2.63;;;;;;;13.04;56.82;92863.69;6213568;23;20031;-87
2024/02/09 07:57:02;;;;;;;8.70;4.53;;;;;;;13.61;56.04;92890.97;6237096;23;20023;-87
2024/02/09 07:59:27;;;;;;;6.63;4.60;;;;;;;13.65;56.06;92894.63;6217835;23;20004;-86
2024/02/09 08:01:53;;;;;;;4.47;3.15;;;;;;;13.59;56.29;92889.63;6218413;23;20079;-86
2024/02/09 08:04:19;;;;;;;5.95;3.45;;;;;;;13.84;55.44;92894.19;6218387;23;20008;-87
2024/02/09 08:42:42;;;;;;;6.60;4.10;;;;;;;13.60;56.16;92855.41;6242429;23;20024;-87
2024/02/09 08:45:07;;;;;;;7.68;4.07;;;;;;;13.66;56.17;92861.44;6192279;23;20012;-86
2024/02/09 09:08:07;;;;;;;4.32;3.30;;;;;;;14.11;56.18;92835.75;6212681;23;20066;-85
2024/02/09 09:10:32;;;;;;;5.97;3.58;;;;;;;14.02;56.34;92832.84;6162768;23;20024;-86
2024/02/09 09:13:00;;;;;;;7.68;3.80;;;;;;;13.97;56.47;92823.16;6186680;23;20019;-87
2024/02/09 09:15:25;;;;;;;6.65;3.33;;;;;;;14.06;56.64;92813.00;6162461;23;20064;-86
2024/02/09 12:38:04;;;;;;;11.40;7.30;;;;;;;14.05;57.82;92684.16;6219194;23;20020;-86
2024/02/09 13:58:39;;;;;;;9.48;6.88;;;;;;;13.52;59.34;92623.50;6216945;23;20028;-85
2024/02/09 14:01:05;;;;;;;9.48;6.78;;;;;;;13.61;59.18;92618.53;6213094;23;20008;-87
2024/02/09 14:03:30;;;;;;;15.38;10.45;;;;;;;13.05;60.84;92609.50;6163292;23;20030;-87
2024/02/09 14:05:58;;;;;;;14.52;11.35;;;;;;;13.38;59.79;92606.75;6188100;23;20016;-87
2024/02/09 15:18:39;;;;;;;10.20;7.43;;;;;;;14.16;57.95;92516.84;6235301;22;20095;-86
2024/02/09 15:21:05;;;;;;;13.18;7.18;;;;;;;13.86;59.08;92526.34;6243907;23;20046;-86
2024/02/09 15:23:31;;;;;;;10.73;7.97;;;;;;;13.97;58.37;92517.41;6218978;23;20031;-87
2024/02/09 15:25:57;;;;;;;9.98;8.60;;;;;;;13.93;58.79;92513.75;6193705;23;20012;-87
2024/02/09 15:28:26;;;;;;;10.95;8.45;;;;;;;13.79;59.05;92513.53;6218852;23;20004;-86
2024/02/09 16:04:56;;;;;;;9.75;7.35;;;;;;;13.16;60.32;92531.25;6241964;22;20023;-86
2024/02/09 16:07:24;;;;;;;10.40;7.70;;;;;;;13.13;59.89;92511.66;6188590;23;20025;-86
2024/02/09 16:09:52;;;;;;;11.57;8.55;;;;;;;13.07;59.81;92507.50;6187955;23;20020;-88
2024/02/09 16:14:43;;;;;;;13.15;8.02;;;;;;;13.15;59.72;92511.41;6192870;23;20075;-87
2024/02/09 16:17:09;;;;;;;9.38;7.97;;;;;;;13.26;59.59;92528.66;6164423;23;20012;-87
2024/02/09 16:19:35;;;;;;;9.82;8.15;;;;;;;13.21;59.64;92521.63;6163343;23;20088;-86
2024/02/09 16:22:00;;;;;;;8.30;7.18;;;;;;;13.08;60.00;92514.28;6164025;23;20012;-87
2024/02/09 16:24:26;;;;;;;8.13;6.53;;;;;;;13.15;59.08;92512.19;6163922;23;20009;-88
2024/02/09 16:26:51;;;;;;;8.25;6.40;;;;;;;13.29;58.69;92523.69;6188345;23;20016;-87
2024/02/09 16:37:04;;;;;;;6.45;4.50;;;;;;;13.29;57.53;92500.22;6209640;23;20017;-87
2024/02/09 16:39:34;;;;;;;6.03;4.82;;;;;;;13.18;57.62;92482.97;6139404;23;20033;-87
2024/02/09 16:42:00;;;;;;;7.65;4.57;;;;;;;13.04;57.91;92487.94;6164070;23;20054;-86
2024/02/09 16:54:46;;;;;;;5.80;4.28;;;;;;;13.15;57.75;92488.69;6213783;23;20028;-87
2024/02/09 16:57:14;;;;;;;5.50;4.38;;;;;;;13.09;57.88;92495.75;6138561;23;20009;-86
2024/02/09 16:59:40;;;;;;;5.63;4.53;;;;;;;13.34;57.17;92503.88;6138444;23;20005;-87
2024/02/09 17:02:07;;;;;;;7.72;5.15;;;;;;;13.41;57.08;92501.81;6138557;23;20012;-87
2024/02/09 17:04:33;;;;;;;6.55;4.60;;;;;;;13.01;57.83;92488.44;6188213;23;20008;-87
2024/02/09 17:06:58;;;;;;;6.22;4.63;;;;;;;12.93;58.22;92501.19;6162909;23;20019;-87
2024/02/09 17:09:24;;;;;;;7.25;4.35;;;;;;;13.06;57.80;92495.47;6163057;23;20019;-87
2024/02/09 17:11:51;;;;;;;6.43;4.65;;;;;;;12.90;58.05;92492.84;6163108;23;20009;-87
2024/02/09 17:14:17;;;;;;;6.35;5.03;;;;;;;12.83;58.24;92479.28;6138532;23;20026;-88
2024/02/09 17:16:44;;;;;;;8.25;4.90;;;;;;;12.77;58.41;92484.75;6188066;23;20005;-87
2024/02/09 17:19:12;;;;;;;8.90;5.13;;;;;;;12.52;59.14;92479.19;6162758;23;20096;-88
2024/02/09 17:21:39;;;;;;;6.30;4.82;;;;;;;12.76;58.66;92478.75;6187625;23;20058;-86
2024/02/09 17:24:05;;;;;;;6.15;5.00;;;;;;;12.80;58.45;92471.97;6187860;23;20016;-87
2024/02/09 17:26:31;;;;;;;5.88;4.80;;;;;;;12.73;58.29;92468.03;6162810;23;20004;-87
2024/02/09 17:28:57;;;;;;;5.75;4.75;;;;;;;12.86;57.67;92472.75;6138251;23;20012;-87
2024/02/09 17:31:22;;;;;;;7.88;5.25;;;;;;;12.86;57.80;92470.94;6187334;23;20039;-87
2024/02/09 17:33:51;;;;;;;8.45;4.78;;;;;;;13.03;57.49;92478.53;6185955;23;20008;-87
2024/02/09 17:36:20;;;;;;;6.82;4.47;;;;;;;13.03;57.08;92465.47;6162355;23;20009;-87
2024/02/09 17:38:46;;;;;;;6.28;3.83;;;;;;;13.17;56.80;92457.91;6138020;23;20008;-87
2024/02/09 17:41:12;;;;;;;6.57;3.60;;;;;;;13.05;56.70;92454.78;6186090;23;20024;-87
2024/02/09 17:43:41;;;;;;;6.80;3.67;;;;;;;13.06;57.03;92454.53;6162511;23;20016;-87
2024/02/09 17:46:07;;;;;;;4.30;3.40;;;;;;;12.96;56.94;92453.72;6186847;23;20000;-88
2024/02/09 17:48:36;;;;;;;4.45;3.13;;;;;;;13.15;57.06;92449.56;6187667;23;20105;-86
2024/02/09 17:51:09;;;;;;;3.92;3.28;;;;;;;13.25;56.37;92457.41;6190850;23;20016;-86
2024/02/09 17:56:10;;;;;;;3.40;2.72;;;;;;;13.27;55.69;92439.66;6182934;23;20025;-86
2024/02/09 17:58:35;;;;;;;4.82;2.83;;;;;;;12.78;57.38;92436.75;6108418;23;20031;-87
2024/02/09 18:11:12;;;;;;;6.55;4.15;;;;;;;12.76;57.65;92413.53;6206826;22;20092;-87
2024/02/09 18:16:15;;;;;;;5.80;3.97;;;;;;;12.56;58.12;92427.31;6185544;23;20013;-86
2024/02/09 18:18:42;;;;;;;5.25;3.80;;;;;;;12.31;59.06;92433.25;6187181;23;20020;-87
2024/02/09 18:21:07;;;;;;;6.22;3.83;;;;;;;12.14;59.32;92423.03;6191693;23;20004;-86
2024/02/09 18:23:33;;;;;;;5.38;3.25;;;;;;;12.49;58.21;92426.81;6217393;23;20008;-88
2024/02/09 18:38:48;;;;;;;4.53;3.17;;;;;;;12.88;56.50;92406.25;6241564;22;20103;-88
2024/02/09 18:41:14;;;;;;;4.20;3.20;;;;;;;12.97;56.51;92395.31;6218339;23;20059;-87
2024/02/09 18:43:39;;;;;;;4.68;3.33;;;;;;;13.09;55.92;92401.81;6217333;23;20087;-87
2024/02/09 18:46:06;;;;;;;7.28;4.07;;;;;;;13.05;56.24;92392.16;6192548;23;20039;-86
2024/02/09 18:48:33;;;;;;;5.30;4.10;;;;;;;12.85;56.51;92383.31;6216216;23;20031;-86
2024/02/09 18:50:59;;;;;;;7.78;4.32;;;;;;;12.77;56.96;92389.00;6191783;23;20000;-89
2024/02/09 18:53:24;;;;;;;6.53;4.50;;;;;;;12.32;58.62;92391.31;6217352;23;20038;-87
2024/02/09 18:55:50;;;;;;;4.45;3.67;;;;;;;12.34;58.13;92391.06;6217822;23;20009;-88
2024/02/09 18:58:16;;;;;;;5.90;4.00;;;;;;;12.56;57.70;92384.84;6217532;23;20031;-88
2024/02/09 19:00:42;;;;;;;5.20;3.92;;;;;;;12.64;57.31;92385.13;6191943;23;20004;-87
2024/02/09 19:03:08;;;;;;;5.97;4.18;;;;;;;11.99;59.04;92378.72;6218514;23;20008;-88
2024/02/09 19:05:34;;;;;;;4.97;3.92;;;;;;;12.56;57.28;92383.00;6194031;23;20008;-87
2024/02/09 19:08:01;;;;;;;5.88;3.75;;;;;;;12.45;58.06;92387.44;6218942;23;20082;-87
2024/02/09 19:10:27;;;;;;;5.38;3.50;;;;;;;12.72;57.18;92370.78;6218923;23;20440;-87
2024/02/09 19:12:53;;;;;;;6.03;3.22;;;;;;;12.21;57.83;92375.91;6219118;23;20012;-88
2024/02/09 19:20:19;;;;;;;6.50;3.97;;;;;;;12.68;57.02;92359.31;6242191;22;20318;-87
2024/02/09 19:22:45;;;;;;;4.93;4.00;;;;;;;13.03;55.84;92358.50;6218039;23;20008;-87
2024/02/09 19:25:11;;;;;;;5.03;3.97;;;;;;;12.89;56.32;92367.91;6219138;23;20011;-87
2024/02/09 19:27:41;;;;;;;6.53;4.47;;;;;;;12.60;57.38;92352.75;6219567;23;20008;-87
2024/02/09 19:35:08;;;;;;;7.60;5.55;;;;;;;12.64;58.17;92361.66;6242026;22;20039;-87
2024/02/09 19:37:34;;;;;;;9.55;5.95;;;;;;;12.42;58.78;92361.09;6193667;23;20012;-87
2024/02/09 19:40:00;;;;;;;8.90;6.25;;;;;;;12.43;58.93;92360.03;6218988;23;20031;-87
2024/02/09 19:42:27;;;;;;;7.95;5.90;;;;;;;12.56;58.45;92349.09;6193947;23;20058;-86
2024/02/09 19:44:53;;;;;;;7.82;6.40;;;;;;;12.54;58.63;92364.22;6217972;23;20004;-87
2024/02/09 19:49:52;;;;;;;8.10;6.27;;;;;;;12.83;57.76;92359.31;6242801;22;20027;-88
2024/02/09 19:52:18;;;;;;;7.50;4.90;;;;;;;13.02;56.29;92353.53;6194705;23;20241;-88
2024/02/09 19:54:47;;;;;;;6.18;4.20;;;;;;;12.90;56.56;92356.41;6218411;23;20004;-87
2024/02/09 19:57:12;;;;;;;5.50;3.83;;;;;;;12.60;56.27;92351.97;6218370;23;20016;-86
2024/02/09 20:07:27;;;;;;;8.60;6.20;;;;;;;12.75;56.79;92359.81;6241796;22;20035;-86
2024/02/09 20:09:52;;;;;;;7.55;5.90;;;;;;;12.84;56.92;92352.25;6194453;23;20019;-86
2024/02/09 20:12:18;;;;;;;11.15;6.30;;;;;;;12.99;56.61;92360.06;6193054;23;20012;-86
2024/02/09 20:14:43;;;;;;;8.18;6.03;;;;;;;13.01;56.06;92360.59;6192071;23;20114;-88
2024/02/09 20:17:12;;;;;;;9.73;5.78;;;;;;;12.77;57.19;92368.16;6192981;23;20019;-86
2024/02/09 20:19:40;;;;;;;9.95;5.70;;;;;;;12.88;56.67;92369.72;6218241;23;20019;-86
2024/02/09 20:27:08;;;;;;;8.90;5.07;;;;;;;12.60;57.82;92368.41;6214072;23;20012;-87
2024/02/09 20:29:33;;;;;;;6.93;5.30;;;;;;;12.80;57.29;92372.09;6163768;23;20017;-86
2024/02/09 20:31:59;;;;;;;5.95;4.82;;;;;;;12.57;57.82;92375.97;6162820;23;20013;-86
2024/02/09 20:34:24;;;;;;;8.65;5.00;;;;;;;12.64;57.49;92387.72;6163351;23;20067;-86
2024/02/09 20:39:18;;;;;;;7.70;5.77;;;;;;;12.66;57.01;92371.78;6216867;23;20089;-86
2024/02/09 20:41:43;;;;;;;8.00;5.25;;;;;;;12.60;57.37;92378.81;6162917;23;20242;-87
2024/02/09 20:44:09;;;;;;;6.47;5.80;;;;;;;12.90;56.43;92370.22;6163265;23;20072;-86
2024/02/09 20:49:10;;;;;;;8.75;6.38;;;;;;;12.32;58.16;92372.28;6212689;23;20074;-87
2024/02/09 20:51:35;;;;;;;7.00;5.82;;;;;;;12.29;58.16;92360.53;6163075;23;20008;-87
2024/02/09 20:54:03;;;;;;;8.23;5.93;;;;;;;12.37;58.09;92363.69;6163189;23;20020;-86
2024/02/09 20:56:28;;;;;;;9.50;6.70;;;;;;;12.08;58.55;92359.72;6163889;23;20090;-87
2024/02/09 21:09:15;;;;;;;8.45;6.40;;;;;;;12.08;58.82;92377.94;6149492;23;20029;-87
2024/02/09 21:11:40;;;;;;;8.52;6.22;;;;;;;12.10;58.97;92378.47;6133290;23;20040;-87
2024/02/09 21:14:08;;;;;;;7.43;5.95;;;;;;;12.17;58.46;92380.84;6133487;23;20017;-88
2024/02/09 21:16:35;;;;;;;10.32;6.75;;;;;;;12.31;58.15;92388.97;6182606;23;20001;-87
2024/02/09 21:21:25;;;;;;;8.88;6.43;;;;;;;11.99;58.79;92370.91;6216808;22;20059;-87
2024/02/09 21:23:52;;;;;;;8.43;6.10;;;;;;;12.16;58.24;92387.09;6192355;23;20012;-87
2024/02/09 21:26:20;;;;;;;8.38;6.03;;;;;;;11.97;58.49;92371.16;6217574;23;20011;-88
2024/02/09 21:28:46;;;;;;;9.75;6.50;;;;;;;12.03;58.65;92370.16;6192858;23;20008;-88
2024/02/09 21:31:14;;;;;;;10.93;6.43;;;;;;;12.00;58.59;92360.22;6192071;23;20030;-87
2024/02/09 21:33:40;;;;;;;9.45;7.22;;;;;;;11.96;59.04;92364.38;6218137;23;20062;-87
2024/02/09 21:36:06;;;;;;;9.10;6.30;;;;;;;11.85;59.12;92357.53;6217058;23;20065;-86
2024/02/09 21:43:34;;;;;;;7.35;6.03;;;;;;;11.86;59.20;92359.91;6238866;22;20024;-87
2024/02/09 21:46:00;;;;;;;8.65;6.20;;;;;;;11.80;59.22;92358.28;6217640;23;20032;-87
2024/02/09 21:48:25;;;;;;;10.55;6.65;;;;;;;11.84;59.33;92371.59;6217686;23;20008;-87
2024/02/09 21:50:52;;;;;;;10.55;7.60;;;;;;;11.86;58.76;92362.50;6217522;23;20004;-87
2024/02/09 21:53:17;;;;;;;9.77;7.13;;;;;;;11.96;58.98;92379.22;6192265;23;20008;-87
2024/02/09 22:03:20;;;;;;;8.40;6.28;;;;;;;11.80;58.98;92386.16;6234733;23;20042;-88
2024/02/09 22:05:52;;;;;;;9.48;6.20;;;;;;;11.90;58.46;92381.81;6192237;23;20019;-86
2024/02/09 22:08:22;;;;;;;9.25;6.50;;;;;;;12.00;58.39;92386.28;6217880;23;20004;-86
2024/02/09 22:10:48;;;;;;;8.80;7.00;;;;;;;11.74;59.46;92382.75;6193908;23;20012;-87
2024/02/09 22:23:24;;;;;;;11.00;8.45;;;;;;;11.54;60.66;92399.06;6213321;23;20027;-87
2024/02/09 22:25:53;;;;;;;10.02;7.53;;;;;;;11.71;60.01;92391.84;6162846;23;20012;-87
2024/02/09 22:28:21;;;;;;;10.73;7.95;;;;;;;11.30;61.57;92404.63;6163213;23;20012;-87
2024/02/09 22:30:47;;;;;;;12.52;8.50;;;;;;;10.91;62.72;92404.91;6187183;23;20009;-87
2024/02/09 22:35:38;;;;;;;12.32;8.95;;;;;;;11.18;61.98;92414.47;6155410;23;20006;-86
2024/02/09 22:38:03;;;;;;;12.45;8.98;;;;;;;11.12;62.16;92413.63;6188773;23;20016;-87
2024/02/09 22:40:29;;;;;;;11.93;8.57;;;;;;;11.37;61.43;92425.25;6214650;23;19993;-86
2024/02/09 22:42:56;;;;;;;10.27;8.85;;;;;;;11.30;61.71;92419.47;6214196;23;20008;-86
2024/02/09 22:45:22;;;;;;;11.82;8.93;;;;;;;11.54;60.96;92428.47;6190122;23;20012;-87
2024/02/09 22:50:23;;;;;;;13.88;9.25;;;;;;;11.52;60.98;92453.19;6214631;23;20020;-87
2024/02/09 22:52:54;;;;;;;10.38;8.00;;;;;;;11.64;60.35;92463.41;6188714;23;20019;-86
2024/02/09 22:55:21;;;;;;;10.50;7.80;;;;;;;11.61;60.31;92466.50;6165054;23;20012;-86
2024/02/09 23:00:29;;;;;;;13.30;9.77;;;;;;;11.35;61.33;92461.94;6214401;23;20020;-87
2024/02/09 23:02:55;;;;;;;15.82;10.73;;;;;;;11.40;61.28;92460.38;6219342;23;20053;-87
2024/02/09 23:05:20;;;;;;;13.50;11.35;;;;;;;11.13;62.64;92487.25;6194396;23;20063;-87
2024/02/09 23:07:46;;;;;;;16.77;12.18;;;;;;;11.45;61.95;92489.06;6219511;23;20002;-87
2024/02/09 23:10:12;;;;;;;17.25;12.88;;;;;;;11.27;62.59;92485.81;6219255;23;20015;-87
2024/02/09 23:12:40;;;;;;;17.00;12.50;;;;;;;11.21;62.57;92492.00;6220059;23;20004;-86
2024/02/09 23:15:15;;;;;;;19.02;12.55;;;;;;;11.24;62.98;92508.94;6226532;23;20015;-86
2024/02/09 23:17:45;;;;;;;16.73;12.95;;;;;;;11.23;63.11;92517.75;6218837;23;20000;-87
2024/02/09 23:20:11;;;;;;;20.55;14.20;;;;;;;11.37;63.02;92507.75;6219003;23;20020;-87
2024/02/09 23:22:39;;;;;;;19.23;14.25;;;;;;;11.24;63.58;92512.31;6219028;23;20000;-86
2024/02/09 23:25:06;;;;;;;19.70;13.55;;;;;;;11.12;63.75;92498.72;6193875;23;20008;-87
2024/02/09 23:27:31;;;;;;;19.60;13.70;;;;;;;11.16;63.71;92510.19;6218637;23;20042;-87
2024/02/09 23:32:25;;;;;;;21.83;14.80;;;;;;;11.19;63.89;92512.28;6244340;22;20062;-87
2024/02/09 23:34:52;;;;;;;18.30;13.35;;;;;;;11.31;63.41;92507.69;6218758;23;20011;-87
2024/02/09 23:37:18;;;;;;;20.30;14.85;;;;;;;11.31;63.65;92515.50;6169438;23;20008;-87
2024/02/09 23:39:48;;;;;;;17.50;14.23;;;;;;;11.33;63.56;92503.03;6193729;23;20019;-87
2024/02/09 23:42:15;;;;;;;17.05;13.20;;;;;;;10.85;64.96;92496.91;6219269;23;20050;-86
2024/02/09 23:44:45;;;;;;;16.92;13.50;;;;;;;10.90;64.71;92494.34;6219022;23;20008;-86
2024/02/09 23:47:11;;;;;;;15.68;11.65;;;;;;;10.98;64.33;92489.72;6193959;23;20027;-87
2024/02/09 23:49:37;;;;;;;16.73;11.85;;;;;;;11.15;63.77;92491.16;6214217;23;20012;-86
2024/02/09 23:52:06;;;;;;;16.67;11.98;;;;;;;11.38;62.58;92472.88;6218650;23;20016;-87
2024/02/09 23:54:32;;;;;;;17.52;11.13;;;;;;;11.37;62.23;92481.72;6218653;23;20004;-87
2024/02/09 23:56:58;;;;;;;13.57;10.57;;;;;;;11.32;62.38;92474.66;6193828;23;20008;-86
2024/02/09 23:59:23;;;;;;;11.25;9.40;;;;;;;11.39;61.90;92462.22;6193235;23;20072;-86
